Neihart, Montana
Current Conditions -  °F | °C
As of 4:56 AM on Friday 28 Nov 2014 (Local Time) from KGFA Reporting Station
Few Clouds Few Clouds  
Wind Chill: 43°   Ceiling: Unl
Heat Index: 49°   Visibility: 10mi
Dew Point: 34°   Wind: 16mph
Humidity: 55%   Direction: 250°WSW
Pressure: 29.58"   Gusts: 22mph
Location:  46.93°N, 110.74°W
Report Text: KGFA 281156Z AUTO 25014G19KT 10SM FEW240 10/01 A2958 RMK AO2 SLP024 T00960010 10097 20040 57014
Loading
Personal Weather Stations






























Interactive Weather Map New forecast layout! Learn more

10-Day Weather Forecast

Advertisements
Track Severe Weather on mobile